Lone Tree, Illinois
Current Conditions -  °F | °C
As of 2:15 AM on Tuesday 27 Jan 2015 (Local Time) from KC75 Reporting Station
Haze Haze  
Wind Chill: 29°   Ceiling: 4200
Heat Index: 29°   Visibility: 3mi
Dew Point: 28°   Wind: 3mph
Humidity: 95%   Direction: 340°NNW
Pressure: 29.95"   Gusts: NA
Location:  41.2776°N, 89.5099°W
Report Text: KC75 270815Z AUTO 34003KT 3SM BR SCT010 OVC042 M02/M02 A2995 RMK AO2 T10161023
Loading
Personal Weather Stations






























Interactive Weather Map New forecast layout! Learn more

10-Day Weather Forecast

Advertisements
Track Severe Weather on mobile